TimeCDT,TemperatureF,Dew PointF,Humidity,Sea Level PressureIn,VisibilityMPH,Wind Direction,Wind SpeedMPH,Gust SpeedMPH,PrecipitationIn,Events,Conditions,WindDirDegrees,DateUTC
12:53 AM,53.1,42.1,66,29.99,10.0,West,3.5,-,N/A,,Clear,260,2012-10-15 05:53:00
1:53 AM,52.0,42.1,69,29.99,10.0,Calm,Calm,-,N/A,,Mostly Cloudy,0,2012-10-15 06:53:00
2:53 AM,52.0,44.1,74,29.99,10.0,Calm,Calm,-,N/A,,Overcast,0,2012-10-15 07:53:00
3:53 AM,50.0,45.0,83,29.98,10.0,Calm,Calm,-,N/A,,Partly Cloudy,0,2012-10-15 08:53:00
4:53 AM,48.9,45.0,86,29.97,10.0,Calm,Calm,-,N/A,,Clear,0,2012-10-15 09:53:00
5:53 AM,48.0,44.1,86,29.97,10.0,Calm,Calm,-,N/A,,Clear,0,2012-10-15 10:53:00
6:53 AM,46.9,43.0,86,29.99,10.0,Calm,Calm,-,N/A,,Clear,0,2012-10-15 11:53:00
7:53 AM,48.0,43.0,83,30.00,10.0,ENE,4.6,-,N/A,,Clear,60,2012-10-15 12:53:00
8:53 AM,53.1,46.0,77,30.01,10.0,Calm,Calm,-,N/A,,Clear,0,2012-10-15 13:53:00
9:53 AM,57.9,46.9,67,30.01,10.0,Variable,3.5,-,N/A,,Clear,0,2012-10-15 14:53:00
10:53 AM,63.0,45.0,52,29.99,10.0,SE,8.1,-,N/A,,Clear,130,2012-10-15 15:53:00
11:53 AM,66.0,46.0,48,29.98,10.0,SSE,6.9,-,N/A,,Clear,150,2012-10-15 16:53:00
12:53 PM,70.0,48.0,46,29.95,10.0,SE,8.1,-,N/A,,Clear,140,2012-10-15 17:53:00
1:53 PM,71.1,48.9,45,29.93,10.0,South,6.9,-,N/A,,Clear,170,2012-10-15 18:53:00
2:53 PM,71.1,48.9,45,29.91,10.0,SSE,6.9,-,N/A,,Clear,160,2012-10-15 19:53:00
3:53 PM,72.0,50.0,46,29.90,10.0,SSE,8.1,-,N/A,,Clear,150,2012-10-15 20:53:00
4:53 PM,72.0,51.1,48,29.88,10.0,South,8.1,-,N/A,,Clear,170,2012-10-15 21:53:00
5:53 PM,70.0,51.1,51,29.86,10.0,SSE,8.1,-,N/A,,Clear,150,2012-10-15 22:53:00
6:53 PM,66.9,50.0,54,29.85,10.0,ESE,5.8,-,N/A,,Clear,120,2012-10-15 23:53:00
7:53 PM,64.0,52.0,65,29.86,10.0,SE,5.8,-,N/A,,Clear,130,2012-10-16 00:53:00
8:53 PM,62.1,51.1,67,29.85,10.0,SE,6.9,-,N/A,,Clear,130,2012-10-16 01:53:00
9:53 PM,62.1,50.0,65,29.84,10.0,SE,8.1,-,N/A,,Clear,140,2012-10-16 02:53:00
10:53 PM,61.0,50.0,67,29.83,10.0,SSE,5.8,-,N/A,,Clear,160,2012-10-16 03:53:00
11:53 PM,57.9,50.0,75,29.82,10.0,SSE,5.8,-,N/A,,Clear,160,2012-10-16 04:53:00